Current | Forecast
Updated: 2:00 AM +04 on October 17, 2017
Observed at Gabala International Airp, Azerbaijan
Temperature 45°F
Windchill 43°F
Humidity 81%
Dew Point 39°F
Wind WNW at 4 mph
Pressure 29.98 in (Rising)
Conditions Partly Cloudy
Visibility 6.2 miles
UV 0 out of 16
Clouds (FEW) : 15000 ft
Yesterday's Maximum 63°F
Yesterday's Minimum 50°F approx.
Yesterday's Heating Degree Days 9 approx.
Sunrise6:59 AM +04
Sunset6:02 PM +04
Moon Rise4:10 AM +04
Moon Set5:09 PM +04
Moon PhaseMoon Phase
Waning Crescent
Raw METARMETAR UBBQ 162200Z 29003KT 9999 FEW150 07/04 Q1015 R34/////// NOSIG RMK MT OBSC


Monday
. High: 62° F.
Tuesday
. High: 66° F.
Wednesday
. High: 57° F.
Thursday
. High: 60° F.
Friday
. High: 55° F.
Saturday
. High: 64° F.
Sunday
. High: 62° F.
Monday
. High: 60° F.

Units: English | Metric

Find the Weather for any City, State or Zipcode, or Country:

U.S. State List | Severe Weather | Tropical Storms | Ski Conditions
United States | Canada | Central America | South America | Asia | Europe | Australia | Africa | Islands

Weather Underground

© Copyright 2017
The Weather Company, LLC